Time;durP1;ratioP1;P1;durP2;ratioP2;P2;SDS_P1;SDS_P2;PMS_P1;PMS_P2;Temp;Humidity;BMP_temperature;BMP_pressure;BME280_temperature;BME280_humidity;BME280_pressure;Samples;Min_cycle;Max_cycle;Signal;HPM_P1;HPM_P2
2022/07/14 00:02:03;;;;;;;12.73;3.23;;;15.80;99.90;;;;;;5073080;28;20455;-60
2022/07/14 00:04:30;;;;;;;8.73;2.90;;;15.80;99.90;;;;;;5073538;28;20471;-61
2022/07/14 00:06:59;;;;;;;8.87;2.40;;;15.80;99.90;;;;;;5073501;28;20490;-61
2022/07/14 00:09:26;;;;;;;11.63;3.37;;;15.70;99.90;;;;;;5074367;28;20459;-62
2022/07/14 00:11:53;;;;;;;10.40;3.57;;;15.70;99.90;;;;;;5074837;28;20443;-62
2022/07/14 00:14:20;;;;;;;10.50;3.60;;;15.70;99.90;;;;;;5072889;28;21071;-61
2022/07/14 00:16:48;;;;;;;9.73;3.30;;;15.60;99.90;;;;;;5073224;28;20818;-61
2022/07/14 00:19:15;;;;;;;11.00;3.60;;;15.60;99.90;;;;;;5073231;28;20951;-62
2022/07/14 00:21:42;;;;;;;8.80;3.40;;;15.60;99.90;;;;;;5073085;28;20873;-62
2022/07/14 00:24:11;;;;;;;9.27;3.03;;;15.60;99.90;;;;;;5073351;28;20853;-59
2022/07/14 00:26:42;;;;;;;19.00;3.50;;;15.50;99.90;;;;;;5077569;28;20497;-60
2022/07/14 00:29:10;;;;;;;7.87;3.00;;;15.50;99.90;;;;;;5076994;28;20530;-62
2022/07/14 00:31:37;;;;;;;11.30;3.23;;;15.40;99.90;;;;;;5077140;28;20978;-62
2022/07/14 00:34:04;;;;;;;8.10;2.80;;;15.40;99.90;;;;;;5077280;28;21040;-62
2022/07/14 00:36:32;;;;;;;13.83;4.03;;;15.40;99.90;;;;;;5077019;28;20495;-61
2022/07/14 00:38:59;;;;;;;13.57;4.07;;;15.40;99.90;;;;;;5076866;28;20522;-61
2022/07/14 00:41:28;;;;;;;12.63;4.17;;;15.30;99.90;;;;;;5076899;28;20966;-63
2022/07/14 00:43:55;;;;;;;9.43;3.80;;;15.30;99.90;;;;;;5076812;28;20931;-61
2022/07/14 00:46:22;;;;;;;8.73;2.87;;;15.30;99.90;;;;;;5077086;28;20474;-62
2022/07/14 00:48:50;;;;;;;12.43;3.63;;;15.30;99.90;;;;;;5076512;28;20513;-62
2022/07/14 00:51:17;;;;;;;10.73;2.80;;;15.20;99.90;;;;;;5076413;28;20886;-62
2022/07/14 00:53:44;;;;;;;16.17;4.17;;;15.20;99.90;;;;;;5076154;28;20947;-62
2022/07/14 00:56:11;;;;;;;15.27;3.97;;;15.20;99.90;;;;;;5076641;28;20518;-62
2022/07/14 00:58:40;;;;;;;17.60;3.10;;;15.20;99.90;;;;;;5076739;28;20473;-62
2022/07/14 01:01:07;;;;;;;14.00;3.60;;;15.10;99.90;;;;;;5076767;28;20860;-62
2022/07/14 01:03:35;;;;;;;10.13;3.53;;;15.10;99.90;;;;;;5076571;28;20481;-60
2022/07/14 01:06:03;;;;;;;14.20;4.17;;;15.10;99.90;;;;;;5076408;28;20447;-60
2022/07/14 01:08:31;;;;;;;11.03;3.97;;;15.10;99.90;;;;;;5076331;28;20836;-62
2022/07/14 01:10:58;;;;;;;17.60;4.50;;;15.00;99.90;;;;;;5076567;28;20513;-62
2022/07/14 01:13:25;;;;;;;11.40;2.97;;;15.00;99.90;;;;;;5076647;28;20485;-61
2022/07/14 01:15:54;;;;;;;8.37;2.80;;;15.00;99.90;;;;;;5072251;28;20571;-60
2022/07/14 01:18:21;;;;;;;10.00;3.63;;;14.90;99.90;;;;;;5076564;28;20553;-61
2022/07/14 01:20:48;;;;;;;12.10;3.80;;;14.90;99.90;;;;;;5077228;28;20443;-61
2022/07/14 01:23:17;;;;;;;10.87;3.27;;;14.90;99.90;;;;;;5077204;28;20475;-62
2022/07/14 01:25:44;;;;;;;11.00;3.70;;;14.90;99.90;;;;;;5076969;28;20470;-60
2022/07/14 01:28:12;;;;;;;15.80;4.03;;;14.90;99.90;;;;;;5076463;28;20474;-61
2022/07/14 01:30:39;;;;;;;12.93;3.23;;;14.90;99.90;;;;;;5079015;28;20447;-62
2022/07/14 01:33:06;;;;;;;13.07;3.83;;;14.90;99.90;;;;;;5077203;28;20451;-61
2022/07/14 01:35:34;;;;;;;13.07;4.00;;;14.80;99.90;;;;;;5075804;28;20517;-61
2022/07/14 01:38:01;;;;;;;8.00;3.30;;;14.80;99.90;;;;;;5075207;28;20478;-61
2022/07/14 01:40:30;;;;;;;12.83;3.47;;;14.80;99.90;;;;;;5076114;28;20500;-61
2022/07/14 01:42:58;;;;;;;9.17;3.37;;;14.80;99.90;;;;;;5079534;28;20973;-61
2022/07/14 01:45:25;;;;;;;13.30;3.47;;;14.80;99.90;;;;;;5077645;28;20931;-61
2022/07/14 01:47:53;;;;;;;7.57;2.63;;;14.80;99.90;;;;;;5076318;28;20828;-62
2022/07/14 01:50:21;;;;;;;5.90;2.60;;;14.80;99.90;;;;;;5076165;28;20443;-63
2022/07/14 01:52:48;;;;;;;11.83;3.80;;;14.70;99.90;;;;;;5076200;28;20444;-61
2022/07/14 01:55:15;;;;;;;16.70;3.83;;;14.70;99.90;;;;;;5075981;28;20471;-61
2022/07/14 01:57:44;;;;;;;7.20;2.77;;;14.70;99.90;;;;;;5075111;28;20526;-61
2022/07/14 02:00:13;;;;;;;7.63;2.63;;;14.70;99.90;;;;;;5075279;28;20443;-61
2022/07/14 02:02:40;;;;;;;11.57;3.37;;;14.60;99.90;;;;;;5075028;28;20439;-60
2022/07/14 02:05:10;;;;;;;14.20;3.17;;;14.60;99.90;;;;;;5074806;28;20443;-62
2022/07/14 02:07:37;;;;;;;7.30;2.90;;;14.60;99.90;;;;;;5055626;28;20814;-61
2022/07/14 02:12:51;;;;;;;12.33;3.57;;;14.50;99.90;;;;;;5075143;28;20823;-60
2022/07/14 02:15:19;;;;;;;12.00;3.60;;;14.50;99.90;;;;;;5075067;28;20572;-63
2022/07/14 02:17:46;;;;;;;8.10;3.57;;;14.50;99.90;;;;;;5075167;28;20495;-61
2022/07/14 02:20:14;;;;;;;16.10;3.10;;;14.40;99.90;;;;;;5079573;28;20497;-61
2022/07/14 02:22:41;;;;;;;13.10;3.80;;;14.40;99.90;;;;;;5082766;28;20439;-61
2022/07/14 02:25:09;;;;;;;12.40;2.97;;;14.40;99.90;;;;;;5083763;28;20869;-61
2022/07/14 02:27:36;;;;;;;9.53;3.00;;;14.40;99.90;;;;;;5082456;28;20502;-62
2022/07/14 02:30:07;;;;;;;14.40;3.63;;;14.40;99.90;;;;;;5079916;28;20455;-61
2022/07/14 02:32:34;;;;;;;14.53;3.20;;;14.40;99.90;;;;;;5077961;28;20931;-61
2022/07/14 02:35:01;;;;;;;9.67;4.37;;;14.40;99.90;;;;;;5074905;28;20479;-60
2022/07/14 02:37:28;;;;;;;14.67;3.37;;;14.40;99.90;;;;;;5074999;28;20459;-60
2022/07/14 02:39:56;;;;;;;8.43;2.90;;;14.40;99.90;;;;;;5074485;28;20520;-60
2022/07/14 02:42:23;;;;;;;11.33;3.13;;;14.30;99.90;;;;;;5074135;28;21018;-62
2022/07/14 02:44:50;;;;;;;8.63;3.00;;;14.30;99.90;;;;;;5073058;28;20998;-62
2022/07/14 02:47:19;;;;;;;13.00;3.27;;;14.30;99.90;;;;;;5074036;28;20498;-61
2022/07/14 02:49:46;;;;;;;7.00;2.67;;;14.30;99.90;;;;;;5073289;28;20943;-62
2022/07/14 02:52:13;;;;;;;13.43;2.90;;;14.30;99.90;;;;;;5075073;28;21000;-61
2022/07/14 02:54:41;;;;;;;6.70;2.83;;;14.30;99.90;;;;;;5074247;28;20475;-61
2022/07/14 02:57:08;;;;;;;13.07;3.20;;;14.30;99.90;;;;;;5074076;28;20572;-62
2022/07/14 02:59:35;;;;;;;17.30;2.90;;;14.30;99.90;;;;;;5074023;28;20475;-61
2022/07/14 03:02:02;;;;;;;9.83;2.90;;;14.30;99.90;;;;;;5074762;28;20463;-62
2022/07/14 03:04:31;;;;;;;6.73;3.00;;;14.20;99.90;;;;;;5085013;28;20989;-61
2022/07/14 03:06:58;;;;;;;11.17;2.83;;;14.20;99.90;;;;;;5083973;28;20494;-61
2022/07/14 03:09:27;;;;;;;16.47;4.07;;;14.30;99.90;;;;;;5077536;28;20955;-62
2022/07/14 03:11:54;;;;;;;7.80;2.77;;;14.20;99.90;;;;;;5077701;28;20458;-60
2022/07/14 03:14:22;;;;;;;9.80;3.70;;;14.20;99.90;;;;;;5076843;28;20484;-62
2022/07/14 03:16:49;;;;;;;13.63;3.50;;;14.20;99.90;;;;;;5076999;28;20482;-62
2022/07/14 03:19:17;;;;;;;10.33;2.70;;;14.20;99.90;;;;;;5077148;28;20815;-62
2022/07/14 03:21:46;;;;;;;18.73;3.60;;;14.20;99.90;;;;;;5076659;28;20447;-62
2022/07/14 03:24:13;;;;;;;7.93;2.93;;;14.20;99.90;;;;;;5076438;28;20852;-61
2022/07/14 03:26:40;;;;;;;9.47;3.20;;;14.20;99.90;;;;;;5076427;28;20507;-61
2022/07/14 03:29:08;;;;;;;10.77;3.63;;;14.20;99.90;;;;;;5074263;28;20478;-61
2022/07/14 03:31:35;;;;;;;10.40;2.87;;;14.20;99.90;;;;;;5074245;28;20458;-61
2022/07/14 03:34:03;;;;;;;10.40;3.70;;;14.20;99.90;;;;;;5075655;28;20451;-62
2022/07/14 03:36:30;;;;;;;6.90;2.80;;;14.20;99.90;;;;;;5087194;28;20600;-63
2022/07/14 03:38:59;;;;;;;7.63;2.87;;;14.30;99.90;;;;;;5073644;28;20481;-62
2022/07/14 03:41:26;;;;;;;12.70;3.20;;;14.30;99.90;;;;;;5073065;28;20501;-61
2022/07/14 03:43:53;;;;;;;7.57;3.10;;;14.30;99.90;;;;;;5072825;28;20443;-62
2022/07/14 03:46:20;;;;;;;13.23;2.77;;;14.30;99.90;;;;;;5073642;28;20478;-61
2022/07/14 03:48:47;;;;;;;8.20;2.67;;;14.30;99.90;;;;;;5073069;28;20952;-61
2022/07/14 03:51:15;;;;;;;10.57;3.03;;;14.40;99.90;;;;;;5073381;28;20497;-60
2022/07/14 03:53:42;;;;;;;7.33;2.53;;;14.50;99.90;;;;;;5073324;28;20496;-60
2022/07/14 03:56:11;;;;;;;9.63;2.80;;;14.60;99.90;;;;;;5073133;28;20474;-62
2022/07/14 03:58:38;;;;;;;14.73;3.07;;;14.60;99.90;;;;;;5073060;28;20538;-62
2022/07/14 04:01:05;;;;;;;12.70;3.63;;;14.80;99.90;;;;;;5072452;28;20477;-61
2022/07/14 04:03:32;;;;;;;9.17;2.93;;;14.90;99.90;;;;;;5073004;28;20858;-61
2022/07/14 04:06:00;;;;;;;8.00;3.50;;;15.10;99.90;;;;;;5073152;28;20858;-60
2022/07/14 04:10:01;;;;;;;12.60;3.13;;;15.50;99.90;;;;;;5118194;27;20545;-61
2022/07/14 04:12:28;;;;;;;10.83;3.60;;;15.90;99.90;;;;;;5132308;27;20486;-61
2022/07/14 04:14:56;;;;;;;11.13;3.20;;;16.20;99.90;;;;;;5115373;27;20481;-59
2022/07/14 04:17:23;;;;;;;13.23;3.77;;;16.40;99.90;;;;;;5119517;28;20515;-62
2022/07/14 04:19:50;;;;;;;8.00;2.63;;;16.40;99.90;;;;;;5110866;28;20471;-60
2022/07/14 04:22:18;;;;;;;14.53;3.03;;;16.50;99.90;;;;;;5110977;28;20511;-61
2022/07/14 04:24:45;;;;;;;8.03;2.63;;;16.90;99.90;;;;;;5098536;28;20438;-60
2022/07/14 04:27:14;;;;;;;9.60;2.70;;;17.30;99.90;;;;;;5111505;28;20519;-62
2022/07/14 04:29:41;;;;;;;7.87;2.30;;;17.80;99.60;;;;;;5100952;28;20527;-60
2022/07/14 04:32:10;;;;;;;7.90;2.50;;;18.00;98.20;;;;;;5091973;28;20473;-61
2022/07/14 04:34:37;;;;;;;7.67;2.40;;;18.10;97.90;;;;;;5091801;28;20934;-61
2022/07/14 04:37:05;;;;;;;10.30;2.40;;;18.10;96.90;;;;;;5091361;28;20553;-62
2022/07/14 04:39:32;;;;;;;13.00;2.53;;;17.80;96.40;;;;;;5091416;28;20865;-62
2022/07/14 04:41:59;;;;;;;9.07;2.73;;;17.60;96.80;;;;;;5105722;28;20973;-61
2022/07/14 04:44:28;;;;;;;11.27;2.50;;;17.50;96.90;;;;;;5103755;28;20442;-62
2022/07/14 04:46:55;;;;;;;15.90;3.33;;;17.50;96.90;;;;;;5091160;28;20475;-62
2022/07/14 04:52:07;;;;;;;9.20;3.00;;;17.80;95.90;;;;;;5090545;28;20406;-60
2022/07/14 04:54:36;;;;;;;8.97;2.60;;;18.00;95.30;;;;;;5090145;28;20981;-61
2022/07/14 04:57:04;;;;;;;8.23;2.30;;;18.10;94.40;;;;;;5089987;28;20512;-63
2022/07/14 04:59:33;;;;;;;7.30;2.53;;;18.20;94.10;;;;;;5087224;28;20521;-61
2022/07/14 05:02:02;;;;;;;8.83;2.23;;;18.50;93.80;;;;;;5106240;28;20474;-61
2022/07/14 05:04:29;;;;;;;5.90;2.07;;;18.80;93.00;;;;;;5109459;28;20443;-63
2022/07/14 05:06:57;;;;;;;9.47;2.23;;;19.00;91.70;;;;;;5110760;28;20527;-61
2022/07/14 05:09:26;;;;;;;8.07;2.57;;;18.80;91.20;;;;;;5100588;28;20479;-63
2022/07/14 05:11:54;;;;;;;6.80;2.57;;;18.70;91.60;;;;;;5107955;28;20532;-61
2022/07/14 05:14:22;;;;;;;9.60;2.90;;;18.80;91.40;;;;;;5108351;28;21009;-61
2022/07/14 05:16:50;;;;;;;10.50;2.53;;;18.80;91.20;;;;;;5097049;28;20490;-60
2022/07/14 05:19:18;;;;;;;7.73;2.70;;;18.80;90.90;;;;;;5088023;28;20467;-61
2022/07/14 05:21:46;;;;;;;6.00;2.37;;;18.70;90.80;;;;;;5077767;28;20571;-62
2022/07/14 05:24:14;;;;;;;7.47;2.13;;;18.70;90.90;;;;;;5080860;28;20516;-61
2022/07/14 05:26:41;;;;;;;9.40;2.23;;;18.80;90.80;;;;;;5077285;28;20613;-60
2022/07/14 05:29:09;;;;;;;9.50;2.40;;;19.00;90.60;;;;;;5094631;28;20477;-60
2022/07/14 05:31:36;;;;;;;7.87;2.50;;;19.40;89.00;;;;;;5092348;28;20443;-60
2022/07/14 05:34:06;;;;;;;6.87;2.33;;;19.60;87.40;;;;;;5076993;28;20497;-61
2022/07/14 05:36:33;;;;;;;9.93;3.80;;;19.80;85.80;;;;;;5083220;28;21048;-62
2022/07/14 05:39:01;;;;;;;5.37;2.47;;;20.00;83.50;;;;;;5082859;28;20931;-61
2022/07/14 05:41:28;;;;;;;8.93;3.10;;;20.00;81.80;;;;;;5083275;28;20445;-61
2022/07/14 05:43:55;;;;;;;6.03;2.20;;;19.90;80.50;;;;;;5085328;28;20440;-59
2022/07/14 05:46:23;;;;;;;8.27;2.00;;;19.80;79.60;;;;;;5096827;28;20442;-61
2022/07/14 05:48:50;;;;;;;6.73;2.50;;;19.60;79.90;;;;;;5096608;28;20477;-61
2022/07/14 05:51:22;;;;;;;8.27;2.73;;;19.60;80.00;;;;;;5097024;28;20450;-60
2022/07/14 05:53:50;;;;;;;8.00;2.50;;;19.70;78.80;;;;;;5097202;28;20522;-60
2022/07/14 05:56:18;;;;;;;6.20;2.00;;;19.80;77.50;;;;;;5098440;28;20810;-61
2022/07/14 05:58:46;;;;;;;5.57;2.03;;;19.80;75.50;;;;;;5099177;28;20443;-61
2022/07/14 06:01:15;;;;;;;6.30;2.43;;;19.90;75.10;;;;;;5098874;28;20458;-61
2022/07/14 06:03:42;;;;;;;5.37;2.07;;;19.90;74.40;;;;;;5098033;28;20820;-61
2022/07/14 06:06:10;;;;;;;8.63;2.10;;;19.90;74.00;;;;;;5099760;28;20446;-61
2022/07/14 06:08:39;;;;;;;5.70;2.63;;;19.90;73.10;;;;;;5082631;28;20559;-62
2022/07/14 06:11:07;;;;;;;13.73;2.57;;;19.80;73.00;;;;;;5075969;28;20492;-61
2022/07/14 06:13:34;;;;;;;8.73;2.30;;;19.80;72.80;;;;;;5077467;28;20445;-62
2022/07/14 06:16:01;;;;;;;9.03;2.30;;;20.00;72.60;;;;;;5076044;28;20505;-62
2022/07/14 06:18:29;;;;;;;3.57;1.80;;;20.10;71.50;;;;;;5076072;28;20869;-61
2022/07/14 06:20:56;;;;;;;6.23;2.30;;;20.10;70.70;;;;;;5075752;28;20465;-62
2022/07/14 06:23:23;;;;;;;5.17;1.93;;;20.20;70.00;;;;;;5075646;28;20975;-61
2022/07/14 06:25:52;;;;;;;10.17;1.53;;;20.10;69.10;;;;;;5075894;28;20448;-61
2022/07/14 06:28:20;;;;;;;6.87;1.93;;;19.90;68.80;;;;;;5092420;22;20486;-61
2022/07/14 06:30:47;;;;;;;7.20;2.30;;;19.80;68.50;;;;;;5033807;28;20449;-59
2022/07/14 06:33:14;;;;;;;4.43;1.73;;;19.70;68.40;;;;;;5033595;28;20448;-61
2022/07/14 06:35:43;;;;;;;6.93;2.40;;;19.50;68.40;;;;;;5038542;28;20469;-63
2022/07/14 06:38:10;;;;;;;7.17;2.63;;;19.40;68.70;;;;;;5034017;28;20523;-61
2022/07/14 06:40:41;;;;;;;8.00;2.57;;;19.40;68.30;;;;;;5034277;28;20508;-62
2022/07/14 06:43:10;;;;;;;4.80;1.97;;;19.40;68.30;;;;;;5034265;28;20429;-61
2022/07/14 06:45:37;;;;;;;9.40;2.73;;;19.50;67.90;;;;;;5034670;28;20449;-62
2022/07/14 06:48:05;;;;;;;12.03;3.90;;;19.60;67.20;;;;;;5034292;28;20498;-62
2022/07/14 06:50:33;;;;;;;6.60;2.30;;;19.80;66.50;;;;;;5033885;28;20567;-63
2022/07/14 06:53:00;;;;;;;5.90;2.30;;;19.80;65.80;;;;;;5033908;28;20557;-62
2022/07/14 06:55:27;;;;;;;6.90;2.10;;;19.80;65.50;;;;;;5033828;28;20447;-62
2022/07/14 06:57:55;;;;;;;5.17;2.30;;;19.90;65.10;;;;;;5035410;28;20454;-60
2022/07/14 07:00:24;;;;;;;7.77;2.47;;;19.90;64.60;;;;;;5033688;28;20465;-63
2022/07/14 07:02:51;;;;;;;8.20;1.97;;;20.00;64.30;;;;;;5033795;28;20926;-61
2022/07/14 07:08:03;;;;;;;8.47;2.73;;;20.10;63.20;;;;;;5033915;28;20477;-63
2022/07/14 07:10:30;;;;;;;7.63;2.90;;;20.10;62.20;;;;;;5033540;28;20493;-61
2022/07/14 07:12:59;;;;;;;9.63;2.90;;;19.80;61.60;;;;;;5034074;28;20450;-61
2022/07/14 07:15:27;;;;;;;7.67;3.17;;;19.40;62.20;;;;;;5033224;28;20507;-62
2022/07/14 07:17:55;;;;;;;6.13;2.57;;;19.20;63.20;;;;;;5033118;28;20445;-61
2022/07/14 07:20:22;;;;;;;6.53;2.57;;;19.20;63.40;;;;;;5035507;28;20520;-61
2022/07/14 07:22:49;;;;;;;7.87;2.70;;;19.40;63.30;;;;;;5028338;28;20467;-60
2022/07/14 07:25:17;;;;;;;12.43;2.30;;;19.50;62.80;;;;;;5033389;28;20441;-61
2022/07/14 07:27:45;;;;;;;8.10;2.23;;;19.60;62.00;;;;;;5033659;28;20823;-61
2022/07/14 07:30:12;;;;;;;8.03;2.57;;;19.50;61.90;;;;;;5032527;28;20537;-60
2022/07/14 07:32:41;;;;;;;6.43;1.80;;;19.40;62.20;;;;;;5034251;28;20445;-59
2022/07/14 07:35:09;;;;;;;8.80;2.23;;;19.30;62.30;;;;;;5035087;28;20479;-61
2022/07/14 07:37:37;;;;;;;7.17;1.97;;;19.30;62.00;;;;;;5033754;28;20476;-60
2022/07/14 07:40:05;;;;;;;5.10;1.73;;;19.20;62.00;;;;;;5033449;28;20465;-59
2022/07/14 07:42:33;;;;;;;5.30;1.83;;;19.30;62.10;;;;;;5033073;28;20937;-61
2022/07/14 07:45:00;;;;;;;2.90;2.07;;;19.30;61.90;;;;;;5033440;28;20445;-61
2022/07/14 07:47:28;;;;;;;5.83;2.37;;;19.40;61.70;;;;;;5032749;28;20445;-61
2022/07/14 07:49:57;;;;;;;11.63;2.90;;;19.50;61.40;;;;;;5032677;28;20519;-60
2022/07/14 07:52:24;;;;;;;10.80;1.73;;;19.70;60.70;;;;;;5036734;28;20449;-60
2022/07/14 07:54:51;;;;;;;8.93;2.07;;;19.90;60.10;;;;;;5033371;28;20506;-59
2022/07/14 07:57:19;;;;;;;3.97;2.00;;;19.90;59.40;;;;;;5032939;28;20945;-59
2022/07/14 07:59:49;;;;;;;5.60;2.17;;;19.70;59.70;;;;;;5033158;28;20839;-60
2022/07/14 08:02:16;;;;;;;5.60;2.33;;;19.50;60.00;;;;;;5033828;28;20476;-61
2022/07/14 08:04:43;;;;;;;4.17;1.80;;;19.40;60.40;;;;;;5032999;28;20490;-61
2022/07/14 08:07:12;;;;;;;5.27;1.80;;;19.50;60.20;;;;;;5033332;28;20453;-61
2022/07/14 08:09:40;;;;;;;4.90;1.70;;;19.60;59.70;;;;;;5032997;28;20992;-61
2022/07/14 08:12:07;;;;;;;6.87;2.10;;;19.70;59.50;;;;;;5032807;28;20988;-60
2022/07/14 08:14:50;;;;;;;8.40;2.13;;;19.90;59.00;;;;;;5033426;28;20586;-60
2022/07/14 08:17:18;;;;;;;5.93;2.30;;;20.20;58.30;;;;;;5032872;28;20464;-60
2022/07/14 08:19:45;;;;;;;6.17;2.10;;;20.40;58.00;;;;;;5032585;28;20457;-59
2022/07/14 08:22:14;;;;;;;5.80;1.27;;;20.40;57.70;;;;;;5032959;28;20996;-60
2022/07/14 08:24:42;;;;;;;7.33;2.10;;;20.20;57.40;;;;;;5033168;28;20448;-60
2022/07/14 08:27:09;;;;;;;4.27;1.70;;;19.90;57.30;;;;;;5032456;28;20921;-60
2022/07/14 08:29:36;;;;;;;6.97;2.30;;;19.70;57.10;;;;;;5032338;28;20584;-61
2022/07/14 08:32:05;;;;;;;7.30;2.17;;;19.70;57.20;;;;;;5032767;28;21023;-61
2022/07/14 08:34:32;;;;;;;6.67;2.37;;;19.80;57.10;;;;;;5032493;28;20548;-60
2022/07/14 08:37:00;;;;;;;7.63;2.03;;;19.80;57.00;;;;;;5032918;28;20531;-60
2022/07/14 08:39:29;;;;;;;8.07;1.70;;;19.80;57.00;;;;;;5032362;28;20894;-61
2022/07/14 08:41:56;;;;;;;6.43;2.20;;;20.00;57.10;;;;;;5032371;28;20929;-60
2022/07/14 08:44:25;;;;;;;4.40;1.87;;;20.10;56.80;;;;;;5032900;28;20448;-61
2022/07/14 08:46:53;;;;;;;7.10;2.30;;;20.10;56.60;;;;;;5032417;28;20536;-61
2022/07/14 08:49:21;;;;;;;7.20;2.23;;;20.20;56.70;;;;;;5032440;28;20563;-61
2022/07/14 08:51:50;;;;;;;6.43;2.00;;;20.30;56.50;;;;;;5032201;28;20441;-59
2022/07/14 08:54:17;;;;;;;3.63;1.40;;;20.40;56.10;;;;;;5032561;28;20819;-61
2022/07/14 08:56:46;;;;;;;7.40;1.90;;;20.40;55.90;;;;;;5035979;28;20444;-61
2022/07/14 08:59:13;;;;;;;8.60;1.70;;;20.40;55.80;;;;;;5036072;28;20521;-61
2022/07/14 09:01:45;;;;;;;2.77;1.17;;;20.40;55.40;;;;;;5036430;28;20528;-61
2022/07/14 09:04:13;;;;;;;4.73;1.60;;;20.40;54.90;;;;;;5036695;28;20425;-61
2022/07/14 09:06:52;;;;;;;8.10;1.67;;;20.40;54.90;;;;;;5036189;28;20507;-61
2022/07/14 09:09:22;;;;;;;5.60;1.60;;;20.60;54.60;;;;;;5036825;28;20472;-62
2022/07/14 09:12:00;;;;;;;4.67;1.40;;;20.70;53.80;;;;;;5036230;28;20818;-62
2022/07/14 09:15:44;;;;;;;6.53;1.60;;;20.80;53.30;;;;;;5036140;28;20441;-61
2022/07/14 09:17:22;;;;;;;3.47;1.47;;;21.00;52.90;;;;;;5037230;28;20445;-61
2022/07/14 09:20:10;;;;;;;4.97;1.40;;;21.00;51.80;;;;;;5036224;28;20466;-61
2022/07/14 09:22:39;;;;;;;4.23;1.53;;;21.10;51.60;;;;;;5036211;28;20458;-60
2022/07/14 09:25:08;;;;;;;4.47;2.83;;;21.30;51.30;;;;;;5036083;28;20507;-61
2022/07/14 09:27:38;;;;;;;8.97;1.77;;;21.60;51.10;;;;;;5037781;28;20946;-61
2022/07/14 09:30:07;;;;;;;3.60;1.43;;;21.60;50.60;;;;;;5035326;28;20490;-62
2022/07/14 09:32:49;;;;;;;3.93;2.03;;;21.50;50.50;;;;;;5035466;28;20486;-62
2022/07/14 09:35:19;;;;;;;3.73;1.27;;;21.30;50.60;;;;;;5035390;28;20462;-61
2022/07/14 09:37:48;;;;;;;3.03;1.30;;;21.30;50.60;;;;;;5035634;28;20481;-61
2022/07/14 09:40:21;;;;;;;4.40;1.80;;;21.40;50.50;;;;;;5035203;28;20816;-61
2022/07/14 09:42:53;;;;;;;9.43;1.97;;;21.50;50.30;;;;;;5035423;28;20427;-60
2022/07/14 09:45:22;;;;;;;5.10;2.20;;;21.60;50.10;;;;;;5035271;28;20442;-61
2022/07/14 09:48:02;;;;;;;5.63;2.07;;;21.70;49.90;;;;;;5035220;28;20452;-63
2022/07/14 09:50:48;;;;;;;5.30;1.23;;;22.00;49.40;;;;;;5035674;28;20480;-61
2022/07/14 09:53:18;;;;;;;3.57;1.10;;;22.10;48.40;;;;;;5035978;28;20436;-61
2022/07/14 09:55:52;;;;;;;2.47;1.23;;;21.90;48.00;;;;;;5035672;28;20455;-61
2022/07/14 09:58:22;;;;;;;3.90;1.47;;;21.60;48.10;;;;;;5035128;28;20469;-62
2022/07/14 10:00:58;;;;;;;9.17;1.40;;;21.50;48.30;;;;;;5035223;28;20440;-60
2022/07/14 10:03:28;;;;;;;11.80;1.47;;;21.70;48.30;;;;;;5034940;28;20514;-61
2022/07/14 10:05:56;;;;;;;3.27;1.33;;;21.80;47.80;;;;;;5034564;28;20442;-61
2022/07/14 10:08:27;;;;;;;4.50;1.10;;;21.80;47.40;;;;;;5035448;28;20526;-59
2022/07/14 10:10:56;;;;;;;2.70;1.47;;;21.70;47.60;;;;;;5034962;28;20748;-60
2022/07/14 10:13:25;;;;;;;4.70;1.30;;;21.80;47.70;;;;;;5035205;28;20502;-61
2022/07/14 10:15:54;;;;;;;4.50;1.70;;;21.80;47.30;;;;;;5035294;28;20463;-59
2022/07/14 10:18:22;;;;;;;3.70;1.30;;;21.90;47.40;;;;;;5034988;28;20471;-60
2022/07/14 10:20:51;;;;;;;5.20;1.57;;;22.00;47.40;;;;;;5035738;28;20444;-61
2022/07/14 10:23:20;;;;;;;2.60;1.10;;;22.20;47.40;;;;;;5034644;28;20497;-61
2022/07/14 10:25:48;;;;;;;3.83;1.50;;;22.40;47.00;;;;;;5034643;28;20955;-62
2022/07/14 10:28:16;;;;;;;4.00;1.30;;;22.30;46.50;;;;;;5034531;28;20975;-61
2022/07/14 10:30:56;;;;;;;3.27;1.30;;;22.20;46.30;;;;;;5035082;28;20472;-60
2022/07/14 10:33:33;;;;;;;2.93;1.30;;;22.30;46.40;;;;;;5035353;28;20436;-59
2022/07/14 10:36:14;;;;;;;2.93;1.07;;;22.60;46.00;;;;;;5034693;28;20424;-63
2022/07/14 10:38:55;;;;;;;4.57;1.37;;;22.60;45.80;;;;;;5034406;28;20563;-62
2022/07/14 10:41:42;;;;;;;6.30;1.73;;;22.70;45.30;;;;;;5034259;28;20928;-62
2022/07/14 10:44:16;;;;;;;4.43;1.53;;;22.80;45.00;;;;;;5033959;28;20433;-61
2022/07/14 10:46:46;;;;;;;3.40;1.40;;;22.90;44.90;;;;;;5034536;28;20508;-61
2022/07/14 10:49:16;;;;;;;2.20;1.10;;;23.00;44.80;;;;;;5034416;28;20478;-61
2022/07/14 10:51:46;;;;;;;3.17;1.30;;;23.10;44.80;;;;;;5033731;28;20527;-62
2022/07/14 10:54:15;;;;;;;3.03;1.20;;;23.20;44.70;;;;;;5033931;28;20461;-61
2022/07/14 10:56:44;;;;;;;3.93;1.33;;;23.30;44.70;;;;;;5033933;28;20920;-61
2022/07/14 10:59:30;;;;;;;2.80;1.40;;;23.40;44.60;;;;;;5034213;28;20477;-62
2022/07/14 11:02:34;;;;;;;5.17;1.10;;;23.20;44.60;;;;;;5034815;28;20929;-62
2022/07/14 11:05:12;;;;;;;3.13;1.20;;;23.20;44.40;;;;;;5034554;28;20437;-62
2022/07/14 11:07:46;;;;;;;4.70;1.33;;;23.30;43.70;;;;;;5034811;28;20575;-60
2022/07/14 11:11:02;;;;;;;5.17;1.40;;;23.40;43.10;;;;;;5034830;28;20941;-61
2022/07/14 11:13:30;;;;;;;4.77;1.07;;;23.40;42.90;;;;;;5034335;28;20422;-62
2022/07/14 11:15:59;;;;;;;3.90;1.13;;;23.40;42.90;;;;;;5034518;28;20471;-62
2022/07/14 11:18:34;;;;;;;3.30;1.30;;;23.50;43.20;;;;;;5033542;28;20468;-61
2022/07/14 11:21:05;;;;;;;4.47;1.20;;;23.50;43.30;;;;;;5035074;28;20430;-61
2022/07/14 11:23:35;;;;;;;3.83;1.30;;;23.60;43.50;;;;;;5037327;28;20449;-61
2022/07/14 11:26:06;;;;;;;3.67;1.70;;;23.70;43.50;;;;;;5034837;28;20523;-61
2022/07/14 11:28:42;;;;;;;5.73;1.63;;;23.80;44.00;;;;;;5036505;28;20527;-62
2022/07/14 11:31:12;;;;;;;2.60;1.17;;;23.80;43.30;;;;;;5035771;28;20535;-62
2022/07/14 11:36:39;;;;;;;2.57;1.30;;;23.70;42.90;;;;;;5034722;28;20792;-61
2022/07/14 11:39:25;;;;;;;4.80;1.83;;;23.90;42.40;;;;;;5034570;28;20527;-61
2022/07/14 11:42:03;;;;;;;1.80;0.93;;;24.00;41.90;;;;;;5034643;28;20452;-61
2022/07/14 11:44:45;;;;;;;3.13;1.50;;;24.00;41.80;;;;;;5034015;28;20467;-61
2022/07/14 11:47:18;;;;;;;3.23;1.17;;;23.80;42.00;;;;;;5034034;28;20568;-62
2022/07/14 11:49:55;;;;;;;3.30;1.17;;;23.60;42.10;;;;;;5034530;28;20472;-62
2022/07/14 11:52:28;;;;;;;7.23;1.30;;;23.30;42.00;;;;;;5037118;28;20483;-61
2022/07/14 11:54:57;;;;;;;2.10;1.30;;;23.20;42.30;;;;;;5034962;28;20429;-62
2022/07/14 11:57:24;;;;;;;3.77;1.60;;;23.30;42.60;;;;;;5034359;28;20535;-61
2022/07/14 11:59:53;;;;;;;2.00;1.20;;;23.80;42.30;;;;;;5034055;28;20519;-62
2022/07/14 12:02:22;;;;;;;2.20;1.27;;;24.40;41.30;;;;;;5033795;28;20461;-61
2022/07/14 12:04:53;;;;;;;3.90;1.10;;;25.20;39.70;;;;;;5033569;28;20461;-61
2022/07/14 12:07:22;;;;;;;2.63;1.50;;;25.80;38.90;;;;;;5033518;28;20482;-62
2022/07/14 12:09:50;;;;;;;2.63;1.33;;;26.30;37.70;;;;;;5034838;28;21019;-63
2022/07/14 12:12:19;;;;;;;2.20;1.60;;;26.90;36.70;;;;;;5035902;28;20519;-62
2022/07/14 12:14:47;;;;;;;5.27;1.20;;;26.90;35.60;;;;;;5034187;28;20473;-61
2022/07/14 12:17:15;;;;;;;1.47;1.07;;;26.60;35.60;;;;;;5034761;28;20452;-61
2022/07/14 12:19:43;;;;;;;2.20;1.40;;;26.40;35.60;;;;;;5034716;28;20471;-60
2022/07/14 12:22:12;;;;;;;2.00;1.30;;;26.10;36.10;;;;;;5035010;28;20541;-62
2022/07/14 12:24:40;;;;;;;2.80;1.60;;;25.70;37.00;;;;;;5034647;28;20483;-62
2022/07/14 12:27:10;;;;;;;2.90;1.30;;;25.70;37.50;;;;;;5036084;28;20445;-63
2022/07/14 12:29:47;;;;;;;3.07;1.20;;;25.70;37.40;;;;;;5048621;22;20957;-59
2022/07/14 12:32:16;;;;;;;2.13;1.30;;;25.80;37.40;;;;;;5036664;28;20519;-59
2022/07/14 12:34:44;;;;;;;6.07;1.30;;;25.90;37.40;;;;;;5036502;28;20933;-59
2022/07/14 12:37:15;;;;;;;4.40;1.60;;;25.90;37.50;;;;;;5036880;28;20455;-61
2022/07/14 12:39:42;;;;;;;2.20;1.10;;;25.70;37.20;;;;;;5036857;28;20470;-60
2022/07/14 12:42:11;;;;;;;6.40;1.70;;;25.50;37.50;;;;;;5036375;28;20484;-60
2022/07/14 12:44:58;;;;;;;3.50;1.43;;;25.30;37.40;;;;;;5036310;28;20445;-58
2022/07/14 12:47:26;;;;;;;5.00;1.27;;;25.20;37.00;;;;;;5036685;28;20913;-58
2022/07/14 12:49:53;;;;;;;2.10;1.23;;;24.90;36.80;;;;;;5036060;28;20476;-59
2022/07/14 12:52:22;;;;;;;2.40;1.40;;;24.60;37.20;;;;;;5036111;28;20489;-59
2022/07/14 12:54:49;;;;;;;4.20;1.40;;;24.50;37.50;;;;;;5036243;28;20549;-59
2022/07/14 12:57:21;;;;;;;4.30;1.77;;;24.30;37.90;;;;;;5036060;28;20447;-59
2022/07/14 12:59:48;;;;;;;4.20;1.90;;;24.20;38.00;;;;;;5035994;28;20972;-59
2022/07/14 13:02:22;;;;;;;4.20;2.47;;;24.30;38.20;;;;;;5035936;28;20495;-59
2022/07/14 13:04:51;;;;;;;3.03;1.87;;;24.20;38.60;;;;;;5036422;28;20442;-59
2022/07/14 13:07:24;;;;;;;2.50;1.43;;;24.30;38.20;;;;;;5035900;28;20549;-59
2022/07/14 13:10:14;;;;;;;3.13;1.50;;;24.20;38.10;;;;;;5035921;28;20562;-59